createdAt,value
2022-07-29T00:01:53.289Z,97311.06
2022-07-29T00:04:21.408Z,97309.03
2022-07-29T00:06:48.350Z,97309.81
2022-07-29T00:09:15.057Z,97305.16
2022-07-29T00:11:41.676Z,97309.06
2022-07-29T00:14:08.927Z,97303.09
2022-07-29T00:16:35.517Z,97304.94
2022-07-29T00:19:02.591Z,97299.97
2022-07-29T00:21:29.504Z,97307.50
2022-07-29T00:23:56.181Z,97310.91
2022-07-29T00:26:22.798Z,97302.88
2022-07-29T00:28:49.378Z,97300.09
2022-07-29T00:49:46.923Z,97306.75
2022-07-29T00:52:17.052Z,97309.34
2022-07-29T00:54:44.930Z,97308.34
2022-07-29T00:57:13.208Z,97300.59
2022-07-29T00:59:40.221Z,97312.00
2022-07-29T01:02:07.015Z,97311.50
2022-07-29T01:04:34.210Z,97299.31
2022-07-29T01:07:05.204Z,97304.78
2022-07-29T01:09:46.151Z,97297.56
2022-07-29T01:12:18.870Z,97298.84
2022-07-29T01:14:48.174Z,97299.34
2022-07-29T01:17:21.167Z,97295.22
2022-07-29T01:19:53.484Z,97296.75
2022-07-29T01:22:26.171Z,97294.44
2022-07-29T01:25:18.714Z,97296.81
2022-07-29T01:28:00.378Z,97296.53
2022-07-29T01:30:30.051Z,97289.81
2022-07-29T01:33:05.164Z,97291.88
2022-07-29T01:35:41.320Z,97295.25
2022-07-29T01:38:16.599Z,97287.16
2022-07-29T01:40:52.310Z,97283.25
2022-07-29T01:43:24.783Z,97284.59
2022-07-29T01:46:01.319Z,97284.88
2022-07-29T01:48:49.545Z,97286.19
2022-07-29T01:51:21.405Z,97287.72
2022-07-29T01:54:06.731Z,97280.22
2022-07-29T01:56:36.181Z,97276.63
2022-07-29T01:59:05.563Z,97272.97
2022-07-29T02:01:34.259Z,97279.69
2022-07-29T02:04:04.496Z,97281.00
2022-07-29T02:06:34.345Z,97278.38
2022-07-29T02:09:03.266Z,97283.00
2022-07-29T02:11:34.306Z,97282.97
2022-07-29T02:14:02.627Z,97275.25
2022-07-29T02:16:33.535Z,97285.38
2022-07-29T02:19:03.109Z,97278.66
2022-07-29T02:21:31.301Z,97287.22
2022-07-29T02:24:00.530Z,97278.41
2022-07-29T02:26:28.789Z,97284.66
2022-07-29T02:28:58.403Z,97277.38
2022-07-29T02:31:30.023Z,97288.22
2022-07-29T02:33:58.035Z,97286.34
2022-07-29T02:36:25.867Z,97268.28
2022-07-29T02:38:54.478Z,97278.41
2022-07-29T02:41:30.650Z,97285.94
2022-07-29T02:44:04.648Z,97284.69
2022-07-29T02:46:35.601Z,97280.25
2022-07-29T02:49:14.372Z,97285.13
2022-07-29T02:51:47.780Z,97285.19
2022-07-29T02:54:28.665Z,97288.28
2022-07-29T02:56:58.960Z,97283.88
2022-07-29T02:59:28.818Z,97289.31
2022-07-29T03:01:58.688Z,97290.88
2022-07-29T03:04:27.259Z,97284.13
2022-07-29T03:06:54.280Z,97276.63
2022-07-29T03:09:22.474Z,97276.88
2022-07-29T03:11:50.671Z,97288.53
2022-07-29T03:14:21.552Z,97284.66
2022-07-29T03:16:49.435Z,97281.53
2022-07-29T03:19:16.515Z,97286.97
2022-07-29T03:21:43.248Z,97292.19
2022-07-29T03:24:10.760Z,97290.63
2022-07-29T03:26:37.850Z,97301.50
2022-07-29T03:29:04.437Z,97304.59
2022-07-29T03:31:31.661Z,97299.16
2022-07-29T03:33:59.396Z,97302.28
2022-07-29T03:36:25.972Z,97296.59
2022-07-29T03:38:53.258Z,97299.19
2022-07-29T03:41:23.544Z,97301.00
2022-07-29T03:43:52.372Z,97310.31
2022-07-29T03:46:21.967Z,97307.72
2022-07-29T03:48:51.328Z,97314.47
2022-07-29T03:51:18.081Z,97313.66
2022-07-29T03:53:45.033Z,97321.44
2022-07-29T03:56:16.763Z,97318.34
2022-07-29T03:58:45.329Z,97314.19
2022-07-29T04:01:12.871Z,97314.19
2022-07-29T04:03:40.385Z,97319.38
2022-07-29T04:06:08.020Z,97314.19
2022-07-29T04:08:35.720Z,97315.25
2022-07-29T04:11:03.123Z,97311.59
2022-07-29T04:13:29.594Z,97306.69
2022-07-29T04:15:56.361Z,97316.53
2022-07-29T04:18:23.045Z,97313.69
2022-07-29T04:20:49.973Z,97316.25
2022-07-29T04:23:16.694Z,97312.41
2022-07-29T04:25:43.820Z,97310.34
2022-07-29T04:28:11.383Z,97309.03
2022-07-29T04:30:38.812Z,97318.63
2022-07-29T04:33:06.139Z,97310.84
2022-07-29T04:35:38.292Z,97320.97
2022-07-29T04:38:06.582Z,97324.03
2022-07-29T04:40:34.170Z,97327.44
2022-07-29T04:43:03.196Z,97324.31
2022-07-29T04:45:32.295Z,97337.00
2022-07-29T04:47:58.896Z,97332.06
2022-07-29T04:50:25.565Z,97331.81
2022-07-29T04:52:52.203Z,97339.25
2022-07-29T04:55:19.084Z,97336.94
2022-07-29T04:57:45.773Z,97346.06
2022-07-29T05:00:13.077Z,97341.09
2022-07-29T05:02:39.612Z,97341.38
2022-07-29T05:05:06.617Z,97335.94
2022-07-29T05:07:33.419Z,97333.38
2022-07-29T05:10:00.513Z,97337.50
2022-07-29T05:12:27.198Z,97337.00
2022-07-29T05:14:53.805Z,97332.88
2022-07-29T05:17:20.426Z,97341.69
2022-07-29T05:19:47.232Z,97343.72
2022-07-29T05:22:13.894Z,97339.31
2022-07-29T05:24:40.462Z,97339.03
2022-07-29T05:27:07.075Z,97342.16
2022-07-29T05:29:44.493Z,97340.31
2022-07-29T05:32:12.983Z,97341.06
2022-07-29T05:34:51.252Z,97348.06
2022-07-29T05:37:19.908Z,97346.25
2022-07-29T05:39:48.862Z,97346.97
2022-07-29T05:42:17.385Z,97353.22
2022-07-29T05:44:44.101Z,97350.91
2022-07-29T05:47:10.750Z,97355.31
2022-07-29T05:49:37.528Z,97354.53
2022-07-29T05:52:04.586Z,97347.47
2022-07-29T05:54:31.676Z,97354.78
2022-07-29T05:56:58.263Z,97354.97
2022-07-29T05:59:29.861Z,97354.63
2022-07-29T06:01:58.200Z,97349.16
2022-07-29T06:04:25.299Z,97353.75
2022-07-29T06:06:52.003Z,97353.19
2022-07-29T06:09:18.662Z,97353.38
2022-07-29T06:11:45.268Z,97352.75
2022-07-29T06:14:12.237Z,97356.09
2022-07-29T06:16:39.018Z,97351.13
2022-07-29T06:19:05.788Z,97354.75
2022-07-29T06:21:32.373Z,97353.66
2022-07-29T06:23:58.925Z,97349.78
2022-07-29T06:26:30.268Z,97345.09
2022-07-29T06:28:58.174Z,97352.22
2022-07-29T06:31:24.960Z,97353.03
2022-07-29T06:33:51.620Z,97354.06
2022-07-29T06:36:21.706Z,97351.63
2022-07-29T06:38:51.364Z,97358.00
2022-07-29T06:41:19.179Z,97354.94
2022-07-29T06:43:52.104Z,97341.91
2022-07-29T06:46:23.137Z,97351.44
2022-07-29T06:48:50.812Z,97351.94
2022-07-29T06:51:22.265Z,97348.44
2022-07-29T06:53:59.869Z,97354.63
2022-07-29T06:56:39.556Z,97352.69
2022-07-29T06:59:11.784Z,97352.63
2022-07-29T07:01:40.119Z,97358.75
2022-07-29T07:04:07.334Z,97355.56
2022-07-29T07:06:33.896Z,97348.66
2022-07-29T07:09:00.503Z,97343.88
2022-07-29T07:11:27.155Z,97349.34
2022-07-29T07:13:54.834Z,97347.66
2022-07-29T07:16:22.823Z,97337.84
2022-07-29T07:18:49.491Z,97345.47
2022-07-29T07:21:19.076Z,97334.78
2022-07-29T07:23:46.619Z,97337.00
2022-07-29T07:26:13.073Z,97338.53
2022-07-29T07:28:39.645Z,97331.25
2022-07-29T07:31:06.516Z,97337.38
2022-07-29T07:33:33.086Z,97317.19
2022-07-29T07:35:59.717Z,97326.66
2022-07-29T07:38:26.297Z,97321.69
2022-07-29T07:40:52.987Z,97322.72
2022-07-29T07:43:19.621Z,97324.63
2022-07-29T07:45:46.281Z,97322.28
2022-07-29T07:48:12.906Z,97319.81
2022-07-29T07:50:39.488Z,97314.22
2022-07-29T07:53:06.191Z,97315.75
2022-07-29T07:55:53.586Z,97310.75
2022-07-29T07:58:19.631Z,97309.41
2022-07-29T08:00:46.303Z,97314.81
2022-07-29T08:03:17.170Z,97306.88
2022-07-29T08:05:44.424Z,97299.13
2022-07-29T08:08:10.950Z,97309.97
2022-07-29T08:10:56.193Z,97309.59
2022-07-29T08:13:29.194Z,97312.69
2022-07-29T08:15:59.219Z,97311.16
2022-07-29T08:18:29.931Z,97306.13
2022-07-29T08:20:56.903Z,97304.75
2022-07-29T08:23:24.144Z,97303.78
2022-07-29T08:25:52.104Z,97302.69
2022-07-29T08:28:21.553Z,97299.16
2022-07-29T08:30:52.924Z,97300.31
2022-07-29T08:33:19.597Z,97291.09
2022-07-29T08:35:46.718Z,97293.72
2022-07-29T08:38:13.198Z,97284.00
2022-07-29T08:40:40.368Z,97285.66
2022-07-29T08:43:08.678Z,97277.19
2022-07-29T08:45:53.472Z,97277.97
2022-07-29T08:48:23.222Z,97269.53
2022-07-29T08:50:55.627Z,97267.63
2022-07-29T08:53:22.751Z,97274.94
2022-07-29T08:55:50.922Z,97262.59
2022-07-29T08:58:18.391Z,97262.78
2022-07-29T09:00:55.474Z,97269.91
2022-07-29T09:03:25.264Z,97264.13
2022-07-29T09:05:52.932Z,97260.84
2022-07-29T09:08:21.103Z,97246.72
2022-07-29T09:10:48.256Z,97242.81
2022-07-29T09:13:14.865Z,97247.09
2022-07-29T09:15:41.498Z,97243.63
2022-07-29T09:18:08.124Z,97238.22
2022-07-29T09:21:11.623Z,97235.16
2022-07-29T09:23:38.221Z,97241.63
2022-07-29T09:26:06.897Z,97240.06
2022-07-29T09:28:33.458Z,97232.53
2022-07-29T09:31:00.147Z,97233.78
2022-07-29T09:33:40.260Z,97228.72
2022-07-29T09:36:09.553Z,97232.50
2022-07-29T09:38:38.023Z,97224.38
2022-07-29T09:41:06.705Z,97223.53
2022-07-29T09:43:34.585Z,97207.94
2022-07-29T09:46:14.613Z,97208.72
2022-07-29T09:48:41.775Z,97206.59
2022-07-29T09:51:26.842Z,97197.88
2022-07-29T09:53:55.317Z,97203.44
2022-07-29T09:56:49.078Z,97191.97
2022-07-29T09:59:15.865Z,97196.16
2022-07-29T10:01:42.841Z,97196.31
2022-07-29T10:04:09.931Z,97185.78
2022-07-29T10:07:03.566Z,97191.31
2022-07-29T10:09:31.636Z,97184.84
2022-07-29T10:12:04.441Z,97178.09
2022-07-29T10:14:33.598Z,97173.47
2022-07-29T10:17:02.198Z,97168.91
2022-07-29T10:19:33.212Z,97160.94
2022-07-29T10:22:01.566Z,97156.03
2022-07-29T10:24:30.270Z,97161.09
2022-07-29T10:26:58.637Z,97162.88
2022-07-29T10:29:26.129Z,97155.94
2022-07-29T10:32:31.582Z,97150.06
2022-07-29T10:35:27.533Z,97149.63
2022-07-29T10:38:16.552Z,97137.28
2022-07-29T10:41:09.155Z,97138.31
2022-07-29T10:43:43.570Z,97141.06
2022-07-29T10:46:12.444Z,97133.78
2022-07-29T10:49:17.358Z,97121.00
2022-07-29T10:52:10.556Z,97118.28
2022-07-29T10:54:37.347Z,97121.78
2022-07-29T10:57:17.909Z,97112.53
2022-07-29T10:59:46.975Z,97110.00
2022-07-29T11:02:43.813Z,97109.59
2022-07-29T11:05:20.166Z,97097.81
2022-07-29T11:08:20.268Z,97105.91
2022-07-29T11:10:49.699Z,97106.69
2022-07-29T11:13:57.096Z,97093.69
2022-07-29T11:16:25.195Z,97098.91
2022-07-29T11:19:14.412Z,97090.81
2022-07-29T11:21:53.977Z,97082.69
2022-07-29T11:24:28.931Z,97072.16
2022-07-29T11:27:21.989Z,97073.25
2022-07-29T11:29:53.499Z,97071.13
2022-07-29T11:32:22.693Z,97070.81
2022-07-29T11:35:17.127Z,97065.63
2022-07-29T11:37:52.594Z,97065.78
2022-07-29T11:40:23.077Z,97062.59
2022-07-29T11:42:52.227Z,97057.44
2022-07-29T11:45:42.847Z,97050.25
2022-07-29T11:48:29.411Z,97043.38
2022-07-29T11:50:58.613Z,97042.41
2022-07-29T11:53:25.896Z,97037.25
2022-07-29T11:55:58.197Z,97038.47
2022-07-29T11:58:26.189Z,97029.75
2022-07-29T12:00:55.727Z,97037.25
2022-07-29T12:03:33.562Z,97034.19
2022-07-29T12:06:15.072Z,97032.81
2022-07-29T12:08:44.112Z,97040.75
2022-07-29T12:11:22.716Z,97040.28
2022-07-29T12:13:52.071Z,97028.22
2022-07-29T12:16:25.390Z,97025.44
2022-07-29T12:18:59.808Z,97020.84
2022-07-29T12:21:27.082Z,97021.34
2022-07-29T12:24:01.852Z,97020.72
2022-07-29T12:26:32.523Z,97024.69
2022-07-29T12:29:03.092Z,97019.34
2022-07-29T12:31:42.956Z,97019.16
2022-07-29T12:34:16.686Z,97023.78
2022-07-29T12:36:44.247Z,97021.94
2022-07-29T12:39:12.485Z,97009.22
2022-07-29T12:41:39.851Z,97013.97
2022-07-29T12:44:06.569Z,97007.50
2022-07-29T12:46:33.345Z,97008.31
2022-07-29T12:48:59.902Z,97007.69
2022-07-29T12:51:33.779Z,97001.91
2022-07-29T12:54:07.129Z,97000.50
2022-07-29T12:56:42.579Z,96991.66
2022-07-29T12:59:21.614Z,96993.16
2022-07-29T13:01:51.522Z,96983.50
2022-07-29T13:04:29.917Z,96977.69
2022-07-29T13:07:04.715Z,96985.44
2022-07-29T13:09:48.697Z,96974.72
2022-07-29T13:12:15.651Z,96978.41
2022-07-29T13:14:47.725Z,96971.03
2022-07-29T13:17:24.045Z,96977.59
2022-07-29T13:19:52.925Z,96961.34
2022-07-29T13:22:24.366Z,96963.38
2022-07-29T13:25:04.805Z,96966.13
2022-07-29T13:27:33.322Z,96955.63
2022-07-29T13:30:02.824Z,96949.63
2022-07-29T13:32:30.827Z,96949.88
2022-07-29T13:34:58.938Z,96946.97
2022-07-29T13:37:26.966Z,96944.84
2022-07-29T13:39:55.097Z,96942.06
2022-07-29T13:42:21.757Z,96940.84
2022-07-29T13:44:49.725Z,96938.22
2022-07-29T13:47:17.187Z,96936.78
2022-07-29T13:49:43.787Z,96942.31
2022-07-29T13:52:10.440Z,96944.88
2022-07-29T13:54:42.067Z,96950.09
2022-07-29T13:57:11.720Z,96945.63
2022-07-29T13:59:39.008Z,96941.47
2022-07-29T14:02:06.548Z,96941.59
2022-07-29T14:04:34.489Z,96931.47
2022-07-29T14:07:03.678Z,96941.13
2022-07-29T14:09:37.319Z,96936.44
2022-07-29T14:12:08.962Z,96941.66
2022-07-29T14:14:37.404Z,96945.94
2022-07-29T14:17:04.477Z,96939.81
2022-07-29T14:19:33.064Z,96947.31
2022-07-29T14:22:00.196Z,96941.69
2022-07-29T14:24:27.088Z,96951.03
2022-07-29T14:26:53.734Z,96948.97
2022-07-29T14:29:20.419Z,96940.72
2022-07-29T14:31:47.033Z,96940.84
2022-07-29T14:34:13.659Z,96939.03
2022-07-29T14:36:40.213Z,96947.75
2022-07-29T14:39:06.784Z,96933.34
2022-07-29T14:41:33.819Z,96940.53
2022-07-29T14:44:01.705Z,96938.09
2022-07-29T14:46:28.842Z,96937.22
2022-07-29T14:48:55.989Z,96935.25
2022-07-29T14:51:22.629Z,96937.06
2022-07-29T14:53:49.187Z,96937.41
2022-07-29T14:56:36.173Z,96937.25
2022-07-29T14:59:02.291Z,96927.59
2022-07-29T15:01:29.019Z,96926.41
2022-07-29T15:03:59.558Z,96934.06
2022-07-29T15:06:27.217Z,96938.31
2022-07-29T15:08:53.897Z,96917.84
2022-07-29T15:11:20.471Z,96921.78
2022-07-29T15:13:47.068Z,96929.72
2022-07-29T15:16:13.791Z,96924.25
2022-07-29T15:18:40.505Z,96920.75
2022-07-29T15:21:07.963Z,96922.56
2022-07-29T15:23:38.205Z,96916.44
2022-07-29T15:26:05.070Z,96926.22
2022-07-29T15:28:31.601Z,96919.63
2022-07-29T15:30:58.171Z,96920.56
2022-07-29T15:33:24.741Z,96923.00
2022-07-29T15:35:51.355Z,96929.56
2022-07-29T15:38:18.707Z,96924.81
2022-07-29T15:40:46.614Z,96926.31
2022-07-29T15:43:13.671Z,96923.84
2022-07-29T15:46:03.418Z,96922.44
2022-07-29T15:48:30.207Z,96920.56
2022-07-29T15:50:56.806Z,96924.44
2022-07-29T15:53:23.531Z,96917.91
2022-07-29T15:55:50.146Z,96927.31
2022-07-29T15:58:17.291Z,96921.53
2022-07-29T16:00:43.971Z,96911.44
2022-07-29T16:03:10.591Z,96919.13
2022-07-29T16:05:37.266Z,96930.13
2022-07-29T16:08:04.359Z,96915.53
2022-07-29T16:10:30.944Z,96923.28
2022-07-29T16:12:57.578Z,96925.75
2022-07-29T16:15:24.356Z,96919.78
2022-07-29T16:17:50.932Z,96924.06
2022-07-29T16:20:17.585Z,96915.47
2022-07-29T16:22:44.219Z,96923.38
2022-07-29T16:25:10.803Z,96917.66
2022-07-29T16:27:38.300Z,96919.22
2022-07-29T16:30:07.984Z,96914.31
2022-07-29T16:32:34.660Z,96921.16
2022-07-29T16:35:02.816Z,96919.88
2022-07-29T16:37:33.582Z,96916.22
2022-07-29T16:40:00.302Z,96923.75
2022-07-29T16:42:45.579Z,96917.56
2022-07-29T16:45:13.672Z,96931.28
2022-07-29T16:47:40.312Z,96930.16
2022-07-29T16:50:07.503Z,96929.03
2022-07-29T16:52:34.363Z,96911.88
2022-07-29T16:55:00.943Z,96920.53
2022-07-29T16:57:27.650Z,96922.13
2022-07-29T16:59:54.305Z,96925.44
2022-07-29T17:02:20.928Z,96917.22
2022-07-29T17:04:47.660Z,96915.34
2022-07-29T17:07:14.953Z,96925.78
2022-07-29T17:09:41.882Z,96927.34
2022-07-29T17:12:08.806Z,96932.84
2022-07-29T17:14:35.446Z,96926.91
2022-07-29T17:17:03.174Z,96929.00
2022-07-29T17:19:33.885Z,96927.31
2022-07-29T17:22:10.479Z,96933.34
2022-07-29T17:24:41.206Z,96935.28
2022-07-29T17:27:07.971Z,96937.59
2022-07-29T17:29:35.265Z,96940.47
2022-07-29T17:32:02.029Z,96938.19
2022-07-29T17:34:28.617Z,96938.75
2022-07-29T17:36:55.412Z,96936.47
2022-07-29T17:39:22.327Z,96944.16
2022-07-29T17:41:49.119Z,96941.47
2022-07-29T17:44:15.717Z,96945.13
2022-07-29T17:46:42.458Z,96946.88
2022-07-29T17:49:09.349Z,96944.94
2022-07-29T17:51:36.061Z,96943.41
2022-07-29T17:54:02.748Z,96948.00
2022-07-29T17:56:29.421Z,96944.16
2022-07-29T17:58:56.119Z,96948.00
2022-07-29T18:01:23.650Z,96951.28
2022-07-29T18:03:50.398Z,96960.31
2022-07-29T18:06:17.043Z,96958.78
2022-07-29T18:08:47.494Z,96970.69
2022-07-29T18:11:15.499Z,96962.22
2022-07-29T18:13:42.129Z,96971.03
2022-07-29T18:16:12.093Z,96975.66
2022-07-29T18:18:38.788Z,96975.25
2022-07-29T18:21:06.098Z,96986.41
2022-07-29T18:23:32.915Z,96987.13
2022-07-29T18:25:59.504Z,96988.63
2022-07-29T18:28:26.240Z,96990.53
2022-07-29T18:30:52.909Z,96989.38
2022-07-29T18:33:22.307Z,96993.81
2022-07-29T18:35:51.734Z,97004.72
2022-07-29T18:38:18.594Z,96993.91
2022-07-29T18:40:45.992Z,96994.25
2022-07-29T18:43:13.296Z,96997.31
2022-07-29T18:45:39.878Z,96998.63
2022-07-29T18:48:08.479Z,97009.94
2022-07-29T18:50:40.499Z,97012.59
2022-07-29T18:53:06.976Z,97019.09
2022-07-29T18:55:33.688Z,97022.06
2022-07-29T18:58:00.319Z,97017.34
2022-07-29T19:00:27.726Z,97021.88
2022-07-29T19:02:54.654Z,97025.88
2022-07-29T19:05:21.642Z,97026.31
2022-07-29T19:07:48.243Z,97017.00
2022-07-29T19:10:14.956Z,97022.63
2022-07-29T19:12:41.656Z,97027.50
2022-07-29T19:15:10.337Z,97034.22
2022-07-29T19:17:37.022Z,97032.59
2022-07-29T19:20:03.915Z,97042.66
2022-07-29T19:22:31.048Z,97035.91
2022-07-29T19:24:57.812Z,97039.84
2022-07-29T19:27:24.523Z,97040.41
2022-07-29T19:29:51.113Z,97045.91
2022-07-29T19:32:24.715Z,97045.47
2022-07-29T19:35:10.850Z,97050.66
2022-07-29T19:37:37.577Z,97056.84
2022-07-29T19:40:05.453Z,97060.28
2022-07-29T19:42:32.040Z,97061.28
2022-07-29T19:44:58.827Z,97061.94
2022-07-29T19:47:25.880Z,97061.00
2022-07-29T19:49:52.783Z,97069.81
2022-07-29T19:52:19.491Z,97069.28
2022-07-29T19:54:46.130Z,97069.63
2022-07-29T19:57:12.790Z,97058.84
2022-07-29T19:59:40.962Z,97057.97
2022-07-29T20:02:10.862Z,97061.75
2022-07-29T20:04:37.904Z,97059.72
2022-07-29T20:07:05.397Z,97065.03
2022-07-29T20:09:32.259Z,97067.91
2022-07-29T20:11:59.138Z,97071.06
2022-07-29T20:14:25.807Z,97073.69
2022-07-29T20:16:54.367Z,97068.50
2022-07-29T20:19:21.115Z,97073.03
2022-07-29T20:21:47.884Z,97067.09
2022-07-29T20:24:14.525Z,97079.31
2022-07-29T20:26:41.144Z,97080.97
2022-07-29T20:29:07.779Z,97088.47
2022-07-29T20:31:36.025Z,97089.91
2022-07-29T20:34:02.783Z,97089.13
2022-07-29T20:36:29.634Z,97092.88
2022-07-29T20:38:56.457Z,97083.84
2022-07-29T20:41:23.460Z,97086.34
2022-07-29T20:43:50.193Z,97093.69
2022-07-29T20:46:17.122Z,97083.97
2022-07-29T20:48:43.889Z,97082.66
2022-07-29T20:51:11.076Z,97094.59
2022-07-29T20:53:38.381Z,97097.00
2022-07-29T20:56:05.653Z,97096.69
2022-07-29T20:58:34.031Z,97100.00
2022-07-29T21:01:01.225Z,97100.19
2022-07-29T21:03:27.802Z,97096.22
2022-07-29T21:05:54.441Z,97105.50
2022-07-29T21:08:21.153Z,97102.22
2022-07-29T21:10:48.007Z,97099.19
2022-07-29T21:13:14.713Z,97100.47
2022-07-29T21:15:45.024Z,97095.44
2022-07-29T21:18:26.985Z,97091.91
2022-07-29T21:20:57.777Z,97101.84
2022-07-29T21:23:25.386Z,97097.09
2022-07-29T21:25:53.344Z,97107.66
2022-07-29T21:28:40.110Z,97108.06
2022-07-29T21:31:07.900Z,97111.25
2022-07-29T21:33:35.375Z,97112.59
2022-07-29T21:38:50.473Z,97109.69
2022-07-29T21:41:17.185Z,97113.41
2022-07-29T21:43:43.790Z,97122.84
2022-07-29T21:46:10.553Z,97128.50
2022-07-29T21:48:41.177Z,97129.41
2022-07-29T21:51:10.583Z,97135.75
2022-07-29T21:53:37.177Z,97129.88
2022-07-29T21:56:03.883Z,97130.56
2022-07-29T21:58:32.599Z,97130.25
2022-07-29T22:01:00.264Z,97126.19
2022-07-29T22:03:27.054Z,97131.47
2022-07-29T22:05:54.211Z,97135.22
2022-07-29T22:08:20.805Z,97127.94
2022-07-29T22:10:47.388Z,97134.78
2022-07-29T22:13:13.946Z,97146.47
2022-07-29T22:15:44.084Z,97144.66
2022-07-29T22:18:13.464Z,97144.03
2022-07-29T22:20:47.471Z,97151.63
2022-07-29T22:23:14.125Z,97145.81
2022-07-29T22:25:40.763Z,97146.69
2022-07-29T22:28:07.357Z,97149.22
2022-07-29T22:30:34.005Z,97151.94
2022-07-29T22:33:00.654Z,97147.75
2022-07-29T22:35:27.341Z,97145.25
2022-07-29T22:37:54.258Z,97151.41
2022-07-29T22:40:20.945Z,97154.03
2022-07-29T22:42:47.583Z,97155.78
2022-07-29T22:45:14.247Z,97153.34
2022-07-29T22:47:48.154Z,97156.41
2022-07-29T22:50:15.238Z,97145.75
2022-07-29T22:52:41.969Z,97153.94
2022-07-29T22:55:08.858Z,97155.03
2022-07-29T22:57:35.517Z,97149.31
2022-07-29T23:00:02.545Z,97145.44
2022-07-29T23:02:29.394Z,97149.31
2022-07-29T23:04:56.329Z,97147.31
2022-07-29T23:07:23.489Z,97156.13
2022-07-29T23:09:50.276Z,97156.59
2022-07-29T23:12:17.569Z,97148.59
2022-07-29T23:14:44.025Z,97155.19
2022-07-29T23:17:10.689Z,97154.69
2022-07-29T23:19:37.370Z,97148.97
2022-07-29T23:22:04.766Z,97147.91
2022-07-29T23:24:31.330Z,97151.59
2022-07-29T23:26:58.149Z,97154.25
2022-07-29T23:29:24.936Z,97157.19
2022-07-29T23:31:51.499Z,97159.66
2022-07-29T23:34:18.108Z,97160.78
2022-07-29T23:36:44.747Z,97145.69
2022-07-29T23:39:12.308Z,97145.19
2022-07-29T23:41:39.172Z,97141.66
2022-07-29T23:44:05.894Z,97142.56
2022-07-29T23:46:32.503Z,97142.38
2022-07-29T23:48:59.146Z,97146.09
2022-07-29T23:51:25.919Z,97147.44
2022-07-29T23:53:54.077Z,97140.94
2022-07-29T23:56:21.224Z,97142.00
2022-07-29T23:58:47.886Z,97144.13
